createdAt,value
2018-02-05T00:02:15.950Z,14.13
2018-02-05T00:04:45.762Z,10.18
2018-02-05T00:07:15.665Z,11.25
2018-02-05T00:09:46.267Z,9.77
2018-02-05T00:12:16.290Z,9.80
2018-02-05T00:14:46.331Z,13.68
2018-02-05T00:17:16.322Z,9.75
2018-02-05T00:19:45.969Z,10.90
2018-02-05T00:22:15.876Z,7.82
2018-02-05T00:24:45.511Z,8.60
2018-02-05T00:27:15.437Z,8.77
2018-02-05T00:29:45.417Z,13.98
2018-02-05T00:32:15.286Z,10.30
2018-02-05T00:34:45.424Z,8.75
2018-02-05T00:37:15.306Z,8.98
2018-02-05T00:39:45.489Z,11.73
2018-02-05T00:42:15.508Z,12.10
2018-02-05T00:44:45.649Z,11.40
2018-02-05T00:47:15.624Z,8.32
2018-02-05T00:49:45.558Z,9.48
2018-02-05T00:52:15.758Z,8.52
2018-02-05T00:54:45.446Z,10.18
2018-02-05T00:57:15.354Z,8.82
2018-02-05T00:59:45.181Z,8.95
2018-02-05T01:02:15.172Z,10.00
2018-02-05T01:04:45.425Z,10.20
2018-02-05T01:07:14.770Z,8.70
2018-02-05T01:09:44.263Z,8.35
2018-02-05T01:12:13.557Z,11.63
2018-02-05T01:14:43.166Z,13.55
2018-02-05T01:17:13.386Z,11.32
2018-02-05T01:19:43.299Z,9.93
2018-02-05T01:22:13.159Z,7.45
2018-02-05T01:24:43.492Z,11.15
2018-02-05T01:27:13.513Z,8.25
2018-02-05T01:29:43.553Z,8.40
2018-02-05T01:32:13.555Z,7.65
2018-02-05T01:34:43.466Z,11.00
2018-02-05T01:37:14.444Z,8.18
2018-02-05T01:39:45.398Z,8.65
2018-02-05T01:42:15.379Z,8.98
2018-02-05T01:44:45.475Z,9.10
2018-02-05T01:47:15.384Z,10.10
2018-02-05T01:49:45.266Z,6.60
2018-02-05T01:52:15.342Z,8.13
2018-02-05T01:54:44.977Z,9.02
2018-02-05T01:57:18.885Z,6.50
2018-02-05T01:59:48.798Z,8.52
2018-02-05T02:02:18.680Z,7.45
2018-02-05T02:04:49.160Z,9.82
2018-02-05T02:07:19.073Z,8.55
2018-02-05T02:09:48.885Z,8.15
2018-02-05T02:12:18.876Z,12.27
2018-02-05T02:14:48.779Z,12.10
2018-02-05T02:17:19.210Z,9.25
2018-02-05T02:19:48.914Z,9.48
2018-02-05T02:22:18.576Z,9.07
2018-02-05T02:24:48.522Z,11.07
2018-02-05T02:27:18.404Z,10.18
2018-02-05T02:29:48.270Z,7.55
2018-02-05T02:32:18.136Z,6.40
2018-02-05T02:34:47.998Z,7.00
2018-02-05T02:37:30.781Z,10.35
2018-02-05T02:40:00.669Z,10.48
2018-02-05T02:42:30.680Z,10.10
2018-02-05T02:45:00.968Z,8.48
2018-02-05T02:47:31.945Z,6.62
2018-02-05T02:50:02.002Z,7.07
2018-02-05T02:52:32.320Z,6.75
2018-02-05T02:55:02.307Z,6.82
2018-02-05T02:57:32.914Z,8.00
2018-02-05T03:00:02.862Z,7.50
2018-02-05T03:02:32.546Z,7.72
2018-02-05T03:05:02.401Z,7.60
2018-02-05T03:07:32.262Z,7.93
2018-02-05T03:10:02.248Z,9.18
2018-02-05T03:12:34.036Z,8.25
2018-02-05T03:15:03.963Z,7.03
2018-02-05T03:17:34.972Z,6.10
2018-02-05T03:20:04.524Z,5.75
2018-02-05T03:22:34.266Z,7.53
2018-02-05T03:25:03.539Z,10.82
2018-02-05T03:27:34.665Z,6.22
2018-02-05T03:30:04.274Z,7.25
2018-02-05T03:32:33.867Z,7.45
2018-02-05T03:35:06.542Z,8.35
2018-02-05T03:37:36.485Z,9.85
2018-02-05T03:40:05.790Z,7.28
2018-02-05T03:42:35.641Z,8.02
2018-02-05T03:45:05.747Z,8.65
2018-02-05T03:47:38.473Z,10.82
2018-02-05T03:50:07.829Z,8.02
2018-02-05T03:52:37.686Z,8.27
2018-02-05T03:55:07.589Z,9.20
2018-02-05T03:57:37.741Z,7.78
2018-02-05T04:00:07.686Z,9.00
2018-02-05T04:02:37.676Z,8.48
2018-02-05T04:05:07.734Z,6.28
2018-02-05T04:07:37.636Z,9.27
2018-02-05T04:10:07.585Z,8.57
2018-02-05T04:12:37.467Z,10.73
2018-02-05T04:15:07.440Z,9.65
2018-02-05T04:17:37.391Z,8.65
2018-02-05T04:20:07.298Z,6.97
2018-02-05T04:22:37.175Z,7.35
2018-02-05T04:25:06.796Z,9.48
2018-02-05T04:27:36.626Z,10.68
2018-02-05T04:30:06.511Z,10.63
2018-02-05T04:32:36.378Z,9.38
2018-02-05T04:35:06.117Z,11.07
2018-02-05T04:37:35.912Z,9.48
2018-02-05T04:40:05.774Z,11.20
2018-02-05T04:42:35.688Z,9.48
2018-02-05T04:45:05.699Z,12.60
2018-02-05T04:47:35.380Z,12.35
2018-02-05T04:50:05.258Z,10.40
2018-02-05T04:52:35.182Z,8.80
2018-02-05T04:55:05.885Z,10.60
2018-02-05T04:57:35.833Z,10.40
2018-02-05T05:00:05.917Z,12.00
2018-02-05T05:02:37.714Z,10.93
2018-02-05T05:05:07.639Z,11.07
2018-02-05T05:07:37.457Z,9.13
2018-02-05T05:10:07.415Z,12.37
2018-02-05T05:12:37.298Z,8.65
2018-02-05T05:15:07.916Z,11.77
2018-02-05T05:17:37.814Z,10.77
2018-02-05T05:20:07.931Z,12.48
2018-02-05T05:22:38.156Z,12.40
2018-02-05T05:25:08.062Z,10.20
2018-02-05T05:27:38.016Z,10.75
2018-02-05T05:30:07.889Z,13.25
2018-02-05T05:32:37.762Z,17.73
2018-02-05T05:35:08.027Z,16.73
2018-02-05T05:37:38.134Z,20.25
2018-02-05T05:40:08.285Z,13.60
2018-02-05T05:45:40.133Z,18.37
2018-02-05T05:48:10.091Z,14.60
2018-02-05T05:50:40.361Z,24.02
2018-02-05T05:53:10.449Z,18.27
2018-02-05T05:55:40.466Z,25.05
2018-02-05T05:58:10.647Z,19.08
2018-02-05T06:00:41.298Z,23.20
2018-02-05T06:03:12.406Z,19.05
2018-02-05T06:09:11.896Z,17.12
2018-02-05T06:11:42.105Z,20.33
2018-02-05T06:14:14.918Z,15.57
2018-02-05T06:16:44.852Z,13.07
2018-02-05T06:19:19.685Z,14.13
2018-02-05T06:21:50.953Z,14.40
2018-02-05T06:24:22.343Z,15.63
2018-02-05T06:26:53.182Z,14.70
2018-02-05T06:29:23.420Z,13.32
2018-02-05T06:31:53.156Z,11.25
2018-02-05T06:34:25.245Z,15.45
2018-02-05T06:37:01.828Z,14.25
2018-02-05T06:39:34.798Z,13.07
2018-02-05T06:42:06.833Z,10.30
2018-02-05T06:44:37.063Z,16.02
2018-02-05T06:47:07.489Z,13.95
2018-02-05T06:49:38.551Z,13.85
2018-02-05T06:52:22.207Z,13.30
2018-02-05T06:58:04.679Z,11.95
2018-02-05T07:00:35.824Z,14.55
2018-02-05T07:03:06.330Z,9.10
2018-02-05T07:05:37.808Z,13.68
2018-02-05T07:08:07.845Z,17.25
2018-02-05T07:10:38.068Z,15.80
2018-02-05T07:13:08.507Z,14.95
2018-02-05T07:15:45.060Z,11.20
2018-02-05T07:18:19.455Z,10.52
2018-02-05T07:20:49.661Z,13.68
2018-02-05T07:23:22.138Z,20.00
2018-02-05T07:25:53.797Z,14.80
2018-02-05T07:31:04.998Z,26.98
2018-02-05T07:33:37.390Z,11.95
2018-02-05T07:36:15.794Z,15.43
2018-02-05T07:41:20.319Z,16.73
2018-02-05T07:43:50.546Z,14.00
2018-02-05T07:46:20.496Z,17.20
2018-02-05T07:51:25.779Z,14.70
2018-02-05T07:53:55.642Z,14.43
2018-02-05T07:56:25.961Z,12.80
2018-02-05T07:58:56.016Z,15.05
2018-02-05T08:01:26.198Z,15.40
2018-02-05T08:03:56.205Z,11.70
2018-02-05T08:06:26.370Z,10.55
2018-02-05T08:08:55.922Z,13.15
2018-02-05T08:11:25.808Z,14.48
2018-02-05T08:13:55.655Z,11.12
2018-02-05T08:16:25.525Z,11.93
2018-02-05T08:18:56.070Z,15.50
2018-02-05T08:21:25.917Z,12.57
2018-02-05T08:23:55.897Z,14.32
2018-02-05T08:26:25.787Z,11.85
2018-02-05T08:28:56.347Z,10.35
2018-02-05T08:31:26.118Z,14.52
2018-02-05T08:33:55.982Z,11.07
2018-02-05T08:36:26.045Z,12.07
2018-02-05T08:38:56.268Z,12.90
2018-02-05T08:41:26.570Z,15.43
2018-02-05T08:43:56.538Z,13.73
2018-02-05T08:49:03.951Z,10.85
2018-02-05T08:51:38.287Z,12.98
2018-02-05T08:54:11.338Z,19.30
2018-02-05T08:56:43.667Z,12.20
2018-02-05T08:59:14.088Z,11.65
2018-02-05T09:01:44.052Z,14.98
2018-02-05T09:04:14.311Z,11.10
2018-02-05T09:06:46.203Z,16.77
2018-02-05T09:09:16.500Z,12.50
2018-02-05T09:14:24.376Z,11.02
2018-02-05T09:16:54.244Z,13.82
2018-02-05T09:19:24.177Z,10.30
2018-02-05T09:21:57.113Z,11.63
2018-02-05T09:24:27.110Z,16.27
2018-02-05T09:26:57.525Z,12.45
2018-02-05T09:29:27.486Z,15.35
2018-02-05T09:31:57.915Z,12.10
2018-02-05T09:34:29.387Z,13.35
2018-02-05T09:36:59.562Z,12.73
2018-02-05T09:42:08.802Z,14.35
2018-02-05T09:44:38.433Z,12.60
2018-02-05T09:49:42.700Z,12.10
2018-02-05T09:52:14.935Z,15.77
2018-02-05T09:54:45.472Z,12.70
2018-02-05T09:57:16.449Z,12.35
2018-02-05T09:59:46.521Z,15.13
2018-02-05T10:02:16.653Z,19.12
2018-02-05T10:04:46.647Z,12.67
2018-02-05T10:07:19.604Z,21.90
2018-02-05T10:09:50.533Z,14.40
2018-02-05T10:12:20.579Z,13.10
2018-02-05T10:14:51.053Z,13.68
2018-02-05T10:17:20.971Z,12.45
2018-02-05T10:19:51.636Z,15.90
2018-02-05T10:22:22.744Z,15.52
2018-02-05T10:24:53.277Z,14.97
2018-02-05T10:27:23.889Z,16.63
2018-02-05T10:29:54.445Z,14.30
2018-02-05T10:32:24.283Z,14.43
2018-02-05T10:34:55.182Z,16.70
2018-02-05T10:37:24.837Z,13.63
2018-02-05T10:39:55.214Z,12.37
2018-02-05T10:42:24.802Z,17.70
2018-02-05T10:45:00.246Z,11.97
2018-02-05T10:50:04.129Z,14.80
2018-02-05T10:52:35.153Z,12.50
2018-02-05T10:55:05.328Z,13.27
2018-02-05T10:57:34.958Z,13.60
2018-02-05T11:00:03.627Z,16.90
2018-02-05T11:02:33.135Z,11.07
2018-02-05T11:07:37.163Z,17.60
2018-02-05T11:10:06.637Z,16.83
2018-02-05T11:12:36.503Z,11.90
2018-02-05T11:15:13.533Z,14.60
2018-02-05T11:17:43.292Z,12.60
2018-02-05T11:20:12.903Z,18.43
2018-02-05T11:22:42.533Z,13.87
2018-02-05T11:25:12.256Z,14.80
2018-02-05T11:27:42.858Z,14.20
2018-02-05T11:30:12.488Z,11.27
2018-02-05T11:32:43.010Z,10.17
2018-02-05T11:35:17.242Z,12.63
2018-02-05T11:37:46.958Z,8.97
2018-02-05T11:40:16.601Z,15.67
2018-02-05T11:42:46.581Z,12.73
2018-02-05T11:45:16.225Z,12.20
2018-02-05T11:47:46.804Z,11.03
2018-02-05T11:50:16.177Z,9.30
2018-02-05T11:52:49.499Z,11.47
2018-02-05T11:55:19.750Z,13.00
2018-02-05T11:57:49.512Z,11.57
2018-02-05T12:00:19.426Z,9.70
2018-02-05T12:02:50.815Z,14.27
2018-02-05T12:05:20.889Z,9.27
2018-02-05T12:07:50.886Z,15.23
2018-02-05T12:10:24.460Z,9.00
2018-02-05T12:12:54.858Z,10.52
2018-02-05T12:15:25.697Z,12.88
2018-02-05T12:17:56.003Z,10.03
2018-02-05T12:20:26.051Z,10.70
2018-02-05T12:22:55.718Z,7.90
2018-02-05T12:25:27.666Z,8.77
2018-02-05T12:27:57.566Z,10.50
2018-02-05T12:30:28.023Z,8.87
2018-02-05T12:32:58.046Z,9.33
2018-02-05T12:35:27.726Z,8.90
2018-02-05T12:37:57.389Z,7.60
2018-02-05T12:40:28.737Z,9.67
2018-02-05T12:42:58.765Z,9.20
2018-02-05T12:45:28.442Z,10.77
2018-02-05T12:50:33.726Z,11.12
2018-02-05T12:53:04.725Z,8.82
2018-02-05T12:55:34.290Z,11.95
2018-02-05T12:58:05.926Z,12.27
2018-02-05T13:07:01.671Z,10.85
2018-02-05T13:12:14.135Z,10.50
2018-02-05T13:14:44.719Z,11.52
2018-02-05T13:17:16.348Z,13.13
2018-02-05T13:22:25.922Z,13.02
2018-02-05T13:30:07.221Z,9.03
2018-02-05T13:32:37.132Z,8.90
2018-02-05T13:35:07.232Z,11.37
2018-02-05T13:40:15.112Z,8.32
2018-02-05T13:42:48.840Z,10.48
2018-02-05T13:45:26.863Z,12.68
2018-02-05T13:50:38.488Z,8.57
2018-02-05T13:53:11.951Z,7.82
2018-02-05T13:58:19.702Z,8.48
2018-02-05T14:03:27.515Z,9.63
2018-02-05T14:06:11.728Z,9.30
2018-02-05T14:13:58.687Z,9.73
2018-02-05T14:19:12.588Z,9.48
2018-02-05T14:27:03.576Z,11.25
2018-02-05T14:32:11.050Z,15.10
2018-02-05T14:34:42.188Z,7.95
2018-02-05T14:37:14.695Z,6.10
2018-02-05T14:39:50.911Z,9.73
2018-02-05T14:45:06.552Z,7.32
2018-02-05T14:50:21.084Z,9.32
2018-02-05T15:00:44.851Z,6.30
2018-02-05T15:03:24.074Z,8.32
2018-02-05T15:08:45.788Z,7.15
2018-02-05T15:14:55.605Z,9.48
2018-02-05T15:17:43.505Z,9.45
2018-02-05T15:25:45.894Z,9.32
2018-02-05T15:28:18.533Z,7.18
2018-02-05T15:33:23.564Z,8.43
2018-02-05T16:00:25.924Z,8.75
2018-02-05T17:12:26.018Z,7.50
2018-02-05T17:14:56.292Z,8.50
2018-02-05T17:17:26.364Z,14.40
2018-02-05T17:19:57.081Z,6.75
2018-02-05T17:22:27.097Z,11.45
2018-02-05T17:24:57.284Z,8.98
2018-02-05T17:27:27.831Z,8.48
2018-02-05T17:29:57.867Z,6.32
2018-02-05T17:32:27.779Z,8.55
2018-02-05T17:34:57.547Z,8.30
2018-02-05T17:37:27.570Z,9.43
2018-02-05T17:39:57.486Z,15.25
2018-02-05T17:42:27.382Z,11.45
2018-02-05T17:44:57.746Z,11.43
2018-02-05T17:47:28.970Z,11.40
2018-02-05T17:49:59.441Z,8.70
2018-02-05T17:52:33.272Z,10.68
2018-02-05T17:55:04.381Z,9.45
2018-02-05T17:57:34.396Z,12.48
2018-02-05T18:00:04.203Z,10.57
2018-02-05T18:02:34.003Z,8.50
2018-02-05T18:05:04.324Z,11.48
2018-02-05T18:07:34.185Z,8.38
2018-02-05T18:10:04.010Z,9.27
2018-02-05T18:12:34.105Z,9.75
2018-02-05T18:15:03.732Z,9.48
2018-02-05T18:17:33.718Z,9.18
2018-02-05T18:20:03.506Z,8.75
2018-02-05T18:22:33.476Z,11.10
2018-02-05T18:25:03.312Z,9.88
2018-02-05T18:27:57.396Z,10.77
2018-02-05T18:30:28.831Z,9.18
2018-02-05T18:35:33.336Z,13.48
2018-02-05T18:38:08.415Z,11.02
2018-02-05T18:40:42.496Z,16.37
2018-02-05T18:43:14.644Z,10.65
2018-02-05T18:45:47.656Z,11.65
2018-02-05T18:51:09.940Z,12.00
2018-02-05T18:56:17.142Z,13.77
2018-02-05T18:58:47.125Z,11.82
2018-02-05T19:01:16.886Z,10.73
2018-02-05T19:03:46.566Z,9.98
2018-02-05T19:06:20.580Z,9.82
2018-02-05T19:08:50.684Z,10.02
2018-02-05T19:11:20.968Z,11.68
2018-02-05T19:13:54.321Z,10.82
2018-02-05T19:16:24.527Z,14.05
2018-02-05T19:18:55.525Z,12.45
2018-02-05T19:21:26.168Z,13.62
2018-02-05T19:23:55.997Z,13.25
2018-02-05T19:26:26.266Z,11.73
2018-02-05T19:29:01.458Z,10.18
2018-02-05T19:31:32.685Z,10.45
2018-02-05T19:34:04.375Z,12.35
2018-02-05T19:36:34.534Z,17.10
2018-02-05T19:39:03.813Z,11.12
2018-02-05T19:41:33.705Z,13.45
2018-02-05T19:44:04.215Z,13.90
2018-02-05T19:46:34.135Z,16.92
2018-02-05T19:49:03.978Z,11.57
2018-02-05T19:51:33.844Z,11.93
2018-02-05T19:54:03.613Z,8.52
2018-02-05T19:56:33.641Z,12.60
2018-02-05T19:59:03.535Z,12.25
2018-02-05T20:01:33.510Z,11.40
2018-02-05T20:04:03.966Z,10.95
2018-02-05T20:06:33.852Z,13.93
2018-02-05T20:09:03.598Z,12.50
2018-02-05T20:11:33.507Z,11.57
2018-02-05T20:14:03.752Z,12.23
2018-02-05T20:16:33.681Z,13.95
2018-02-05T20:19:10.001Z,15.32
2018-02-05T20:21:41.903Z,11.82
2018-02-05T20:24:13.185Z,15.40
2018-02-05T20:26:43.540Z,15.30
2018-02-05T20:29:14.048Z,14.95
2018-02-05T20:31:44.031Z,11.85
2018-02-05T20:34:14.311Z,12.20
2018-02-05T20:36:45.015Z,11.80
2018-02-05T20:39:14.892Z,12.60
2018-02-05T20:41:44.425Z,14.02
2018-02-05T20:44:14.381Z,9.95
2018-02-05T20:46:44.694Z,13.75
2018-02-05T20:49:14.763Z,11.68
2018-02-05T20:51:45.065Z,10.60
2018-02-05T20:54:15.408Z,17.77
2018-02-05T20:56:45.256Z,10.25
2018-02-05T20:59:15.351Z,12.40
2018-02-05T21:01:45.884Z,12.37
2018-02-05T21:04:16.241Z,11.73
2018-02-05T21:06:46.246Z,13.20
2018-02-05T21:09:16.117Z,13.62
2018-02-05T21:11:47.332Z,14.82
2018-02-05T21:14:17.556Z,10.90
2018-02-05T21:16:47.618Z,13.18
2018-02-05T21:19:18.137Z,12.77
2018-02-05T21:21:48.249Z,9.52
2018-02-05T21:24:19.527Z,14.63
2018-02-05T21:26:49.388Z,12.68
2018-02-05T21:29:19.260Z,13.18
2018-02-05T21:31:49.123Z,10.73
2018-02-05T21:34:20.386Z,12.25
2018-02-05T21:36:51.399Z,11.50
2018-02-05T21:39:21.657Z,10.05
2018-02-05T21:41:51.281Z,7.60
2018-02-05T21:44:21.186Z,13.13
2018-02-05T21:46:50.774Z,9.20
2018-02-05T21:49:20.949Z,11.77
2018-02-05T21:51:50.670Z,12.15
2018-02-05T21:54:20.527Z,12.32
2018-02-05T21:56:49.794Z,12.37
2018-02-05T21:59:19.749Z,12.20
2018-02-05T22:01:49.878Z,12.65
2018-02-05T22:04:19.767Z,11.45
2018-02-05T22:06:49.587Z,15.10
2018-02-05T22:09:19.456Z,11.38
2018-02-05T22:11:50.090Z,15.45
2018-02-05T22:14:20.568Z,10.77
2018-02-05T22:16:51.459Z,13.00
2018-02-05T22:19:21.766Z,13.20
2018-02-05T22:21:52.086Z,13.35
2018-02-05T22:24:33.090Z,10.85
2018-02-05T22:27:03.217Z,12.95
2018-02-05T22:29:37.985Z,13.43
2018-02-05T22:32:09.159Z,14.02
2018-02-05T22:34:39.739Z,15.20
2018-02-05T22:37:09.840Z,13.02
2018-02-05T22:39:39.885Z,15.40
2018-02-05T22:42:10.106Z,13.30
2018-02-05T22:44:40.637Z,16.00
2018-02-05T22:47:10.595Z,12.18
2018-02-05T22:49:41.761Z,14.93
2018-02-05T22:52:11.982Z,14.70
2018-02-05T22:54:42.701Z,11.38
2018-02-05T22:57:12.710Z,18.90
2018-02-05T22:59:43.206Z,16.50
2018-02-05T23:02:13.675Z,18.15
2018-02-05T23:04:43.958Z,15.57
2018-02-05T23:07:13.818Z,16.40
2018-02-05T23:09:43.877Z,15.75
2018-02-05T23:12:13.864Z,20.50
2018-02-05T23:14:44.215Z,13.55
2018-02-05T23:17:15.426Z,17.73
2018-02-05T23:19:45.831Z,17.52
2018-02-05T23:22:16.112Z,20.65
2018-02-05T23:24:45.987Z,19.05
2018-02-05T23:27:15.886Z,19.05
2018-02-05T23:29:45.708Z,21.00
2018-02-05T23:32:15.656Z,23.27
2018-02-05T23:34:45.710Z,20.20
2018-02-05T23:37:16.047Z,20.10
2018-02-05T23:39:46.030Z,16.15
2018-02-05T23:42:16.091Z,16.58
2018-02-05T23:44:46.070Z,16.98
2018-02-05T23:47:16.233Z,19.90
2018-02-05T23:49:46.149Z,26.12
2018-02-05T23:52:16.191Z,19.25
2018-02-05T23:54:46.193Z,17.77
2018-02-05T23:57:16.636Z,16.98
2018-02-05T23:59:46.478Z,17.80
